Weather reports worldwide

Advertisment
Bealach, United Kingdom (3039): temperature & dewpoint: 12.08.2017 00:00:00 - 18.08.2017 00:00:00 (BST)Bealach, United Kingdom (3039): wind speed & gusts: 12.08.2017 00:00:00 - 18.08.2017 00:00:00 (BST)Bealach, United Kingdom (3039): wind direction: 12.08.2017 00:00:00 - 18.08.2017 00:00:00 (BST)Bealach, United Kingdom (3039): visibility: 12.08.2017 00:00:00 - 18.08.2017 00:00:00 (BST)
Date & Time tt [°C] td [°C] ff [km/h] ff [kn] fx [km/h] fx [kn] dd vv [km]
18.08.2017 00:00:00 8,1 8,1 21 11 - - S -
17.08.2017 23:00:00 8,2 8,2 24 13 48 26 SSE -
17.08.2017 22:00:00 8,6 8,6 26 14 54 29 SSE -
17.08.2017 21:00:00 8,2 8,2 34 18 50 27 SSW -
17.08.2017 20:00:00 8,7 8,7 31 17 50 27 S -
17.08.2017 19:00:00 8,2 8,2 41 22 59 32 S -
17.08.2017 18:00:00 8,3 8,3 50 27 65 35 SSW -
17.08.2017 17:00:00 8,6 8,6 52 28 70 38 SSW -
17.08.2017 16:00:00 8,9 8,9 61 33 74 40 SSW -
17.08.2017 15:00:00 8,9 8,9 59 32 80 43 SSW -
17.08.2017 14:00:00 9,2 9,2 67 36 87 47 SSW -
17.08.2017 13:00:00 9,2 9,2 63 34 91 49 SSW -
17.08.2017 12:00:00 9,0 9,0 74 40 100 54 SSW -
17.08.2017 11:00:00 9,0 9,0 57 31 100 54 SSW -
17.08.2017 10:00:00 8,7 8,7 50 27 80 43 S -
17.08.2017 09:00:00 8,6 8,6 55 30 83 45 S -
17.08.2017 08:00:00 8,5 8,5 50 27 93 50 SSW -
17.08.2017 07:00:00 8,5 8,5 70 38 96 52 S -
17.08.2017 06:00:00 8,5 8,5 59 32 102 55 S -
17.08.2017 05:00:00 8,8 8,8 61 33 93 50 SSW -
17.08.2017 04:00:00 8,7 8,7 48 26 91 49 S -
17.08.2017 03:00:00 8,7 8,7 55 30 87 47 SSW -
17.08.2017 02:00:00 8,7 8,7 59 32 81 44 S -
17.08.2017 01:00:00 8,9 8,9 57 31 81 44 SSW -
17.08.2017 00:00:00 8,9 8,9 61 33 91 49 SSW -
16.08.2017 23:00:00 9,5 9,5 63 34 87 47 SSW -
16.08.2017 22:00:00 10,6 10,6 68 37 - - SSW 0,3
16.08.2017 21:00:00 11,5 11,4 70 38 96 52 SSW -
16.08.2017 20:00:00 11,3 11,3 26 14 81 44 S -
16.08.2017 19:00:00 10,7 10,7 29 16 78 42 SSE -
16.08.2017 18:00:00 10,4 10,4 41 22 80 43 SSE -
16.08.2017 17:00:00 9,8 9,8 44 24 74 40 SSE -
16.08.2017 16:00:00 9,4 9,4 50 27 80 43 SSE -
16.08.2017 15:00:00 9,1 9,1 44 24 68 37 SSE -
16.08.2017 14:00:00 8,2 8,2 39 21 76 41 SE -
16.08.2017 13:00:00 7,9 7,9 22 12 63 34 SE -
16.08.2017 12:00:00 8,7 7,4 48 26 68 37 SSE -
16.08.2017 11:00:00 9,4 6,8 52 28 68 37 SSE -
16.08.2017 10:00:00 8,6 6,7 24 13 54 29 SE -
16.08.2017 09:00:00 8,4 6,0 35 19 63 34 SSE -
16.08.2017 08:00:00 7,8 6,2 35 19 57 31 SSE -
16.08.2017 07:00:00 7,4 6,5 29 16 54 29 SSE -
16.08.2017 06:00:00 6,8 6,8 35 19 50 27 S -
16.08.2017 05:00:00 7,3 7,3 28 15 59 32 S -
16.08.2017 04:00:00 7,3 7,3 48 26 59 32 S -
16.08.2017 03:00:00 7,3 7,3 39 21 59 32 SSW -
16.08.2017 02:00:00 7,1 7,1 44 24 63 34 SSW -
16.08.2017 01:00:00 7,2 7,2 41 22 57 31 SSW -
16.08.2017 00:00:00 7,6 7,6 35 19 54 29 SSW -
15.08.2017 23:00:00 7,4 7,4 41 22 59 32 SSW -
15.08.2017 22:00:00 7,7 7,7 42 23 54 29 SW -
15.08.2017 21:00:00 7,9 7,9 39 21 57 31 SW -
15.08.2017 20:00:00 7,7 7,7 42 23 54 29 SW -
15.08.2017 19:00:00 7,3 7,3 39 21 54 29 WSW -
15.08.2017 18:00:00 7,7 6,9 29 16 57 31 WSW -
15.08.2017 17:00:00 7,3 5,7 50 27 67 36 WSW -
15.08.2017 16:00:00 7,6 5,5 48 26 63 34 WSW -
15.08.2017 15:00:00 8,2 7,8 46 25 61 33 SSW -
15.08.2017 14:00:00 8,0 8,0 46 25 70 38 SSW -
15.08.2017 13:00:00 8,0 7,8 50 27 65 35 SSW -
15.08.2017 12:00:00 7,6 7,6 52 28 67 36 SSW -
15.08.2017 11:00:00 7,5 7,2 44 24 57 31 SSW -
15.08.2017 10:00:00 7,2 6,9 48 26 55 30 SSW -
15.08.2017 09:00:00 7,4 7,4 37 20 46 25 SSW -
15.08.2017 08:00:00 7,1 7,1 26 14 - - WSW -
15.08.2017 07:00:00 7,4 7,4 35 19 48 26 SW -
15.08.2017 06:00:00 7,4 7,4 31 17 46 25 SSW -
15.08.2017 05:00:00 7,5 7,5 28 15 - - SSW -
15.08.2017 04:00:00 7,2 7,2 31 17 - - SSW -
15.08.2017 03:00:00 7,7 7,7 29 16 - - SSW -
15.08.2017 02:00:00 8,0 8,0 35 19 - - SSW -
15.08.2017 01:00:00 8,2 8,2 35 19 - - SSW -
15.08.2017 00:00:00 8,8 8,8 34 18 52 28 SSW -
14.08.2017 23:00:00 8,7 8,7 39 21 55 30 S -
14.08.2017 22:00:00 9,0 9,0 39 21 68 37 SSW -
14.08.2017 21:00:00 9,2 9,2 44 24 57 31 S -
14.08.2017 20:00:00 9,6 9,6 37 20 68 37 S -
14.08.2017 19:00:00 10,4 10,4 46 25 65 35 S -
14.08.2017 18:00:00 10,8 10,8 34 18 61 33 S -
14.08.2017 17:00:00 10,8 10,8 29 16 46 25 S -
14.08.2017 16:00:00 9,8 9,8 28 15 - - SSE -
14.08.2017 15:00:00 9,0 8,8 13 7 - - SE -
14.08.2017 14:00:00 8,4 8,3 11 6 - - ESE -
14.08.2017 13:00:00 7,8 7,8 26 14 46 25 ESE -
14.08.2017 12:00:00 7,2 7,2 15 8 57 31 ESE -
14.08.2017 11:00:00 6,8 6,8 29 16 46 25 ESE -
14.08.2017 10:00:00 6,3 6,3 24 13 - - ESE -
14.08.2017 09:00:00 6,1 6,1 29 16 - - ESE -
14.08.2017 08:00:00 5,9 5,9 22 12 - - ESE -
14.08.2017 07:00:00 6,7 5,8 15 8 - - E -
14.08.2017 06:00:00 7,1 5,1 26 14 48 26 SSE -
14.08.2017 05:00:00 7,2 4,4 16 9 - - ESE -
14.08.2017 04:00:00 7,2 4,2 9 5 - - SE -
14.08.2017 03:00:00 7,2 4,3 15 8 - - ESE -
14.08.2017 02:00:00 7,1 4,5 11 6 - - SE -
14.08.2017 01:00:00 7,0 5,1 15 8 - - SSE -
14.08.2017 00:00:00 7,0 5,7 22 12 - - SSE -
13.08.2017 23:00:00 6,8 6,8 24 13 - - SSE -
13.08.2017 22:00:00 6,8 6,2 24 13 - - SSE 0,3
13.08.2017 21:00:00 7,1 4,7 28 15 - - S -
13.08.2017 20:00:00 6,8 5,3 29 16 - - S -
13.08.2017 19:00:00 7,3 5,7 28 15 - - SSW -
13.08.2017 18:00:00 7,1 6,3 35 19 - - SSW -
13.08.2017 17:00:00 7,4 6,4 31 17 46 25 SSW -
13.08.2017 16:00:00 7,1 5,6 26 14 - - SSW -
13.08.2017 15:00:00 7,7 4,4 26 14 - - SW -
13.08.2017 14:00:00 7,8 4,0 24 13 - - SW -
13.08.2017 13:00:00 7,2 3,6 24 13 - - WSW -
13.08.2017 12:00:00 7,2 2,0 22 12 - - SW -
13.08.2017 11:00:00 6,4 3,6 26 14 - - SW -
13.08.2017 10:00:00 6,2 5,6 28 15 - - WSW 0,3
13.08.2017 09:00:00 5,8 5,7 21 11 - - WSW -
13.08.2017 08:00:00 5,5 5,5 22 12 - - SW -
13.08.2017 07:00:00 5,2 5,2 22 12 - - WSW -
13.08.2017 06:00:00 5,6 5,6 22 12 - - WSW -
13.08.2017 05:00:00 5,6 5,6 24 13 - - W -
13.08.2017 04:00:00 5,7 5,7 22 12 - - WNW -
13.08.2017 03:00:00 5,6 5,6 22 12 - - W -
13.08.2017 02:00:00 5,6 5,6 22 12 - - W -
13.08.2017 01:00:00 5,7 5,7 24 13 - - WNW -
13.08.2017 00:00:00 5,8 5,8 29 16 - - WNW -
12.08.2017 23:00:00 5,9 5,9 26 14 - - WNW -
12.08.2017 22:00:00 5,7 5,7 34 18 - - WNW 0,3
12.08.2017 21:00:00 6,2 6,2 22 12 - - WNW -
12.08.2017 20:00:00 5,6 5,6 21 11 - - WNW -
12.08.2017 19:00:00 7,0 5,0 28 15 - - WNW -
12.08.2017 18:00:00 7,6 4,7 28 15 - - NW -
12.08.2017 17:00:00 7,4 5,2 26 14 - - NNW -
12.08.2017 16:00:00 7,2 5,1 31 17 - - NNW -
12.08.2017 15:00:00 7,5 4,6 29 16 - - NW -
12.08.2017 14:00:00 7,8 4,9 28 15 46 25 NW -
12.08.2017 13:00:00 7,0 5,7 39 21 54 29 NNW -
12.08.2017 12:00:00 6,6 6,5 42 23 54 29 NNW -
12.08.2017 11:00:00 6,3 6,3 42 23 52 28 NW -
12.08.2017 10:00:00 5,9 5,9 41 22 54 29 NNW 0,3
12.08.2017 09:00:00 6,6 6,6 31 17 - - NNW -
12.08.2017 08:00:00 6,5 6,5 22 12 - - NNW -
12.08.2017 07:00:00 6,5 6,5 34 18 - - NNW -
12.08.2017 06:00:00 6,2 6,2 26 14 - - NNW -
12.08.2017 05:00:00 6,2 6,2 26 14 - - NNW -
12.08.2017 04:00:00 6,4 6,4 22 12 - - NNW -
12.08.2017 03:00:00 6,5 6,5 29 16 - - NNW -
12.08.2017 02:00:00 6,6 6,6 35 19 48 26 NNW -
12.08.2017 01:00:00 6,9 6,9 28 15 - - N -
12.08.2017 00:00:00 7,2 7,2 24 13 - - N -

tt = temperature
td = dewpoint
ff = wind speed
fx = gusts
dd = wind direction
vv = visibility

Next stations